Time;durP1;ratioP1;P1;durP2;ratioP2;P2;SDS_P1;SDS_P2;PMS_P1;PMS_P2;Temp;Humidity;BMP_temperature;BMP_pressure;BME280_temperature;BME280_humidity;BME280_pressure;Samples;Min_cycle;Max_cycle;Signal;HPM_P1;HPM_P2
2024/02/29 00:00:36;;;;;;;31.00;12.90;;;1.60;99.90;;;;;;4188808;28;20452;-75
2024/02/29 00:02:38;;;;;;;29.53;12.83;;;1.60;99.90;;;;;;4186086;28;20532;-78
2024/02/29 00:04:40;;;;;;;32.07;12.67;;;1.60;99.90;;;;;;4184907;28;20535;-77
2024/02/29 00:06:42;;;;;;;32.03;12.23;;;1.60;99.90;;;;;;4183628;28;20453;-77
2024/02/29 00:08:44;;;;;;;32.43;13.60;;;1.70;99.90;;;;;;4188617;28;20464;-77
2024/02/29 00:10:46;;;;;;;33.87;13.73;;;1.50;99.90;;;;;;4190177;28;20459;-77
2024/02/29 00:12:48;;;;;;;31.43;13.33;;;1.50;99.90;;;;;;4193661;28;21037;-78
2024/02/29 00:14:51;;;;;;;31.33;13.10;;;1.50;99.90;;;;;;4196118;28;20527;-78
2024/02/29 00:16:53;;;;;;;32.20;12.47;;;1.50;99.90;;;;;;4188939;28;20840;-76
2024/02/29 00:18:55;;;;;;;31.70;14.17;;;1.50;99.90;;;;;;4194312;28;20522;-76
2024/02/29 00:20:57;;;;;;;31.53;13.40;;;1.60;99.90;;;;;;4182545;28;20465;-75
2024/02/29 00:22:59;;;;;;;34.70;13.30;;;1.70;99.90;;;;;;4184221;28;20836;-75
2024/02/29 00:25:02;;;;;;;28.47;12.83;;;1.50;99.90;;;;;;4181098;28;20846;-76
2024/02/29 00:27:07;;;;;;;32.60;13.67;;;1.60;99.90;;;;;;4181483;28;20447;-73
2024/02/29 00:29:09;;;;;;;30.87;12.17;;;1.50;99.90;;;;;;4186671;28;20800;-74
2024/02/29 00:31:13;;;;;;;34.53;13.93;;;1.50;99.90;;;;;;4181504;28;20453;-75
2024/02/29 00:33:15;;;;;;;29.50;13.10;;;1.50;99.90;;;;;;4186942;28;20468;-74
2024/02/29 00:35:16;;;;;;;31.77;13.10;;;1.50;99.90;;;;;;4191785;28;20503;-73
2024/02/29 00:37:18;;;;;;;30.87;12.70;;;1.50;99.90;;;;;;4181073;28;20476;-71
2024/02/29 00:39:19;;;;;;;28.00;12.83;;;1.40;99.90;;;;;;4187254;28;20452;-71
2024/02/29 00:41:21;;;;;;;30.57;12.70;;;1.40;99.90;;;;;;4184392;28;20460;-72
2024/02/29 00:43:24;;;;;;;33.93;13.20;;;1.40;99.90;;;;;;4182136;28;20449;-71
2024/02/29 00:45:26;;;;;;;32.07;12.90;;;1.40;99.90;;;;;;4187371;28;21035;-74
2024/02/29 00:47:28;;;;;;;33.80;14.20;;;1.70;99.90;;;;;;4183671;28;20458;-72
2024/02/29 00:49:30;;;;;;;28.60;12.53;;;1.40;99.90;;;;;;4185142;28;21147;-75
2024/02/29 00:51:33;;;;;;;32.47;12.30;;;1.30;99.90;;;;;;4184404;28;20440;-74
2024/02/29 00:53:35;;;;;;;29.23;12.10;;;1.40;99.90;;;;;;4183194;28;20468;-74
2024/02/29 00:55:37;;;;;;;32.07;12.87;;;1.30;99.90;;;;;;4184629;28;20485;-75
2024/02/29 00:57:39;;;;;;;31.17;12.93;;;1.30;99.90;;;;;;4185642;28;20457;-74
2024/02/29 00:59:42;;;;;;;28.90;13.13;;;1.30;99.90;;;;;;4184525;28;20523;-75
2024/02/29 01:01:43;;;;;;;33.03;12.53;;;1.30;99.90;;;;;;4181571;28;20460;-73
2024/02/29 01:03:45;;;;;;;30.23;12.13;;;1.20;99.90;;;;;;4185468;28;20427;-73
2024/02/29 01:05:46;;;;;;;28.37;11.70;;;1.20;99.90;;;;;;4180843;28;20230;-76
2024/02/29 01:07:48;;;;;;;31.43;13.07;;;1.20;99.90;;;;;;4185248;28;20455;-74
2024/02/29 01:09:50;;;;;;;30.17;12.70;;;1.20;99.90;;;;;;4187278;28;20467;-75
2024/02/29 01:11:52;;;;;;;32.73;11.87;;;1.20;99.90;;;;;;4187087;28;20457;-75
2024/02/29 01:13:54;;;;;;;28.50;11.77;;;1.10;99.90;;;;;;4184666;28;20490;-72
2024/02/29 01:15:57;;;;;;;31.03;12.47;;;1.10;99.90;;;;;;4187887;28;20580;-72
2024/02/29 01:17:59;;;;;;;29.80;11.97;;;1.10;99.90;;;;;;4180705;28;20453;-72
2024/02/29 01:19:59;;;;;;;29.00;12.70;;;1.10;99.90;;;;;;4183996;28;20797;-71
2024/02/29 01:22:02;;;;;;;27.60;11.23;;;1.10;99.90;;;;;;4183440;28;20477;-72
2024/02/29 01:24:04;;;;;;;25.77;12.13;;;1.10;99.90;;;;;;4182090;28;20211;-71
2024/02/29 01:26:06;;;;;;;28.43;12.17;;;1.10;99.90;;;;;;4181259;28;20987;-72
2024/02/29 01:28:08;;;;;;;27.57;11.57;;;1.10;99.90;;;;;;4185349;28;20448;-71
2024/02/29 01:30:10;;;;;;;29.43;11.30;;;1.00;99.90;;;;;;4190187;28;20455;-73
2024/02/29 01:32:14;;;;;;;25.13;11.00;;;1.00;99.90;;;;;;4184283;28;20441;-71
2024/02/29 01:34:16;;;;;;;29.33;12.17;;;1.00;99.90;;;;;;4181549;28;20481;-72
2024/02/29 01:36:18;;;;;;;29.27;11.23;;;1.00;99.90;;;;;;4181690;28;20531;-72
2024/02/29 01:38:19;;;;;;;32.83;12.53;;;1.00;99.90;;;;;;4187783;28;20456;-74
2024/02/29 01:40:21;;;;;;;28.70;11.60;;;1.00;99.90;;;;;;4189757;28;20458;-75
2024/02/29 01:42:22;;;;;;;28.03;12.00;;;0.90;99.90;;;;;;4189328;28;20202;-74
2024/02/29 01:44:23;;;;;;;28.33;11.67;;;0.90;99.90;;;;;;4185305;28;20925;-73
2024/02/29 01:46:25;;;;;;;31.67;12.63;;;0.90;99.90;;;;;;4190346;28;20275;-75
2024/02/29 01:48:28;;;;;;;33.27;12.80;;;0.90;99.90;;;;;;4187462;28;20455;-75
2024/02/29 01:50:31;;;;;;;30.03;11.87;;;0.90;99.90;;;;;;4186782;28;20445;-74
2024/02/29 01:52:38;;;;;;;29.50;11.60;;;0.90;99.90;;;;;;4190102;28;21156;-76
2024/02/29 01:54:43;;;;;;;28.27;11.57;;;0.90;99.90;;;;;;4187203;28;20480;-75
2024/02/29 01:56:45;;;;;;;27.67;11.47;;;0.90;99.90;;;;;;4185645;28;20483;-75
2024/02/29 01:58:47;;;;;;;30.37;10.70;;;0.90;99.90;;;;;;4185626;28;20460;-75
2024/02/29 02:00:49;;;;;;;29.27;11.60;;;0.90;99.90;;;;;;4187417;28;20457;-75
2024/02/29 02:02:54;;;;;;;30.53;11.80;;;0.90;99.90;;;;;;4185762;28;20510;-75
2024/02/29 02:04:58;;;;;;;27.83;12.33;;;0.90;99.90;;;;;;4186097;28;20487;-73
2024/02/29 02:07:05;;;;;;;28.07;11.70;;;0.80;99.90;;;;;;4184477;28;20470;-75
2024/02/29 02:09:08;;;;;;;26.37;10.50;;;0.80;99.90;;;;;;4187002;28;20481;-71
2024/02/29 02:11:11;;;;;;;24.80;11.03;;;0.80;99.90;;;;;;4189093;28;20447;-71
2024/02/29 02:13:12;;;;;;;24.33;11.47;;;0.80;99.90;;;;;;4189649;28;20867;-71
2024/02/29 02:15:17;;;;;;;27.80;10.90;;;0.80;99.90;;;;;;4190846;28;21186;-71
2024/02/29 02:17:19;;;;;;;30.57;11.43;;;0.80;99.90;;;;;;4188466;28;20515;-72
2024/02/29 02:19:21;;;;;;;21.50;10.13;;;0.80;99.90;;;;;;4187595;28;20931;-72
2024/02/29 02:21:25;;;;;;;27.83;10.63;;;0.80;99.90;;;;;;4185798;28;20507;-72
2024/02/29 02:23:26;;;;;;;25.67;10.03;;;0.80;99.90;;;;;;4192837;28;20464;-73
2024/02/29 02:25:27;;;;;;;29.17;11.03;;;0.80;99.90;;;;;;4183904;28;20517;-71
2024/02/29 02:27:29;;;;;;;25.10;10.60;;;0.70;99.90;;;;;;4188563;28;20472;-72
2024/02/29 02:29:30;;;;;;;29.80;11.30;;;0.70;99.90;;;;;;4189101;28;20720;-71
2024/02/29 02:31:33;;;;;;;27.97;10.60;;;0.70;99.90;;;;;;4190806;28;20448;-71
2024/02/29 02:33:35;;;;;;;31.77;11.23;;;0.70;99.90;;;;;;4187459;28;20513;-73
2024/02/29 02:35:36;;;;;;;27.87;11.23;;;0.70;99.90;;;;;;4190106;28;20546;-72
2024/02/29 02:37:41;;;;;;;28.03;11.87;;;0.70;99.90;;;;;;4186994;28;20498;-72
2024/02/29 02:39:43;;;;;;;28.30;10.90;;;0.70;99.90;;;;;;4180643;28;20963;-74
2024/02/29 02:41:44;;;;;;;28.17;11.50;;;0.60;99.90;;;;;;4185867;28;20499;-71
2024/02/29 02:43:49;;;;;;;24.23;10.87;;;0.60;99.90;;;;;;4189973;28;20436;-71
2024/02/29 02:45:51;;;;;;;25.37;10.23;;;0.60;99.90;;;;;;4186151;28;20541;-72
2024/02/29 02:47:53;;;;;;;29.37;11.30;;;0.60;99.90;;;;;;4184493;28;20480;-71
2024/02/29 02:49:55;;;;;;;29.57;11.53;;;0.70;99.90;;;;;;4191924;28;20456;-74
2024/02/29 02:51:57;;;;;;;26.80;10.60;;;0.60;99.90;;;;;;4190947;28;20791;-72
2024/02/29 02:54:00;;;;;;;26.13;10.90;;;0.60;99.90;;;;;;4190027;28;20456;-71
2024/02/29 02:56:03;;;;;;;25.63;10.07;;;0.60;99.90;;;;;;4189335;28;20489;-73
2024/02/29 02:58:05;;;;;;;26.93;10.27;;;0.60;99.90;;;;;;4189138;28;20544;-72
2024/02/29 03:00:10;;;;;;;26.87;10.53;;;0.60;99.90;;;;;;4183547;28;20445;-72
2024/02/29 03:02:12;;;;;;;23.30;10.87;;;0.60;99.90;;;;;;4186152;28;20472;-72
2024/02/29 03:04:15;;;;;;;26.73;10.90;;;0.60;99.90;;;;;;4188679;28;20452;-73
2024/02/29 03:06:16;;;;;;;25.73;10.63;;;0.60;99.90;;;;;;4191424;28;20441;-73
2024/02/29 03:08:20;;;;;;;27.80;10.60;;;0.50;99.90;;;;;;4187714;28;20479;-74
2024/02/29 03:10:22;;;;;;;25.07;10.10;;;0.50;99.90;;;;;;4188059;28;20474;-72
2024/02/29 03:12:24;;;;;;;27.63;10.63;;;0.50;99.90;;;;;;4190029;28;20498;-72
2024/02/29 03:14:27;;;;;;;23.97;10.33;;;0.50;99.90;;;;;;4180019;28;21001;-72
2024/02/29 03:16:29;;;;;;;25.47;10.17;;;0.50;99.90;;;;;;4186416;28;20529;-71
2024/02/29 03:18:31;;;;;;;25.50;10.43;;;0.50;99.90;;;;;;4182681;28;20499;-72
2024/02/29 03:20:33;;;;;;;25.10;11.40;;;0.50;99.90;;;;;;4185949;28;20479;-71
2024/02/29 03:22:34;;;;;;;24.70;9.67;;;0.50;99.90;;;;;;4186461;28;20516;-72
2024/02/29 03:24:39;;;;;;;28.73;11.27;;;0.50;99.90;;;;;;4184976;28;20472;-71
2024/02/29 03:26:43;;;;;;;23.20;10.30;;;0.40;99.90;;;;;;4187787;28;20488;-74
2024/02/29 03:28:44;;;;;;;30.70;11.30;;;0.50;99.90;;;;;;4192156;28;20456;-72
2024/02/29 03:30:46;;;;;;;26.47;10.40;;;0.40;99.90;;;;;;4191469;28;20501;-73
2024/02/29 03:32:48;;;;;;;29.30;11.23;;;0.40;99.90;;;;;;4185352;28;20485;-72
2024/02/29 03:34:50;;;;;;;24.30;10.33;;;0.40;99.90;;;;;;4183131;28;20488;-72
2024/02/29 03:36:52;;;;;;;26.83;10.73;;;0.40;99.90;;;;;;4184251;28;20488;-73
2024/02/29 03:38:54;;;;;;;30.73;10.93;;;0.40;99.90;;;;;;4189461;28;21059;-71
2024/02/29 03:40:56;;;;;;;23.20;9.97;;;0.30;99.90;;;;;;4184468;28;20463;-71
2024/02/29 03:42:59;;;;;;;27.47;10.83;;;0.30;99.90;;;;;;4187712;28;20447;-74
2024/02/29 03:45:00;;;;;;;31.43;11.47;;;0.30;99.90;;;;;;4193486;28;20991;-72
2024/02/29 03:47:02;;;;;;;24.70;10.50;;;0.30;99.90;;;;;;4190926;28;20440;-73
2024/02/29 03:49:04;;;;;;;31.07;11.37;;;0.30;99.90;;;;;;4191719;28;20240;-73
2024/02/29 03:51:08;;;;;;;24.13;9.80;;;0.30;99.90;;;;;;4185045;28;20441;-72
2024/02/29 03:53:10;;;;;;;27.83;10.47;;;0.30;99.90;;;;;;4185636;28;21049;-71
2024/02/29 03:55:12;;;;;;;25.03;9.93;;;0.30;99.90;;;;;;4179110;28;20610;-71
2024/02/29 03:57:14;;;;;;;24.30;10.67;;;0.40;99.90;;;;;;4179787;28;20484;-74
2024/02/29 03:59:16;;;;;;;22.20;10.13;;;0.40;99.90;;;;;;4184777;28;20491;-73
2024/02/29 04:01:18;;;;;;;25.33;10.70;;;0.40;99.90;;;;;;4179455;28;20935;-74
2024/02/29 04:03:20;;;;;;;30.60;10.83;;;0.40;99.90;;;;;;4182375;28;21007;-73
2024/02/29 04:05:24;;;;;;;23.23;9.67;;;0.30;99.90;;;;;;4186451;28;20968;-71
2024/02/29 04:07:25;;;;;;;26.57;10.07;;;0.30;99.90;;;;;;4186006;28;20484;-72
2024/02/29 04:09:26;;;;;;;25.37;10.17;;;0.30;99.90;;;;;;4183870;28;20448;-71
2024/02/29 04:11:28;;;;;;;22.83;10.43;;;0.30;99.90;;;;;;4189729;28;20214;-72
2024/02/29 04:13:31;;;;;;;29.77;11.67;;;0.20;99.90;;;;;;4191733;28;20882;-73
2024/02/29 04:15:34;;;;;;;26.27;10.70;;;0.20;99.90;;;;;;4188704;28;20507;-72
2024/02/29 04:17:36;;;;;;;24.90;10.23;;;0.30;99.90;;;;;;4183217;28;20480;-71
2024/02/29 04:19:38;;;;;;;22.93;9.90;;;0.20;99.90;;;;;;4185091;28;20492;-71
2024/02/29 04:21:44;;;;;;;24.67;10.30;;;0.20;99.90;;;;;;4184701;28;20491;-70
2024/02/29 04:23:46;;;;;;;25.20;10.10;;;0.20;99.90;;;;;;4184120;28;20463;-71
2024/02/29 04:25:48;;;;;;;28.73;10.47;;;0.20;99.90;;;;;;4186676;28;20470;-71
2024/02/29 04:27:50;;;;;;;26.67;10.20;;;0.40;99.90;;;;;;4193121;28;20452;-74
2024/02/29 04:29:52;;;;;;;26.30;9.97;;;0.20;99.90;;;;;;4188804;28;20440;-74
2024/02/29 04:31:55;;;;;;;21.43;9.40;;;0.10;99.90;;;;;;4185007;28;20471;-75
2024/02/29 04:33:57;;;;;;;23.90;9.63;;;0.10;99.90;;;;;;4184946;28;20475;-73
2024/02/29 04:35:59;;;;;;;25.87;10.10;;;0.10;99.90;;;;;;4184097;28;20475;-72
2024/02/29 04:38:01;;;;;;;28.57;11.30;;;0.10;99.90;;;;;;4183656;28;20484;-73
2024/02/29 04:40:04;;;;;;;26.77;10.17;;;0.20;99.90;;;;;;4186862;28;20501;-73
2024/02/29 04:42:05;;;;;;;23.63;10.20;;;0.10;99.90;;;;;;4191001;28;20456;-73
2024/02/29 04:44:07;;;;;;;26.77;10.83;;;0.00;99.90;;;;;;4194229;28;20466;-73
2024/02/29 04:46:09;;;;;;;25.73;10.60;;;0.20;99.90;;;;;;4194294;28;20435;-75
2024/02/29 04:48:13;;;;;;;25.93;10.57;;;0.10;99.90;;;;;;4196667;28;20521;-73
2024/02/29 04:50:15;;;;;;;24.47;9.63;;;0.10;99.90;;;;;;4186359;28;20457;-72
2024/02/29 04:52:16;;;;;;;22.07;9.10;;;0.10;99.90;;;;;;4196455;28;20456;-73
2024/02/29 04:54:18;;;;;;;27.03;10.37;;;0.00;99.90;;;;;;4190911;28;20448;-73
2024/02/29 04:56:21;;;;;;;25.77;10.50;;;0.00;99.90;;;;;;4188121;28;20248;-74
2024/02/29 04:58:27;;;;;;;24.33;10.33;;;0.00;99.90;;;;;;4186738;28;21009;-73
2024/02/29 05:00:29;;;;;;;25.40;10.23;;;0.00;99.90;;;;;;4189299;28;20458;-73
2024/02/29 05:02:33;;;;;;;21.80;9.97;;;0.00;99.90;;;;;;4185891;28;20455;-74
2024/02/29 05:04:37;;;;;;;24.33;9.53;;;0.00;99.90;;;;;;4182237;28;20894;-73
2024/02/29 05:06:39;;;;;;;25.50;10.57;;;0.40;99.90;;;;;;4184466;28;20492;-74
2024/02/29 05:08:40;;;;;;;25.17;10.83;;;0.70;99.90;;;;;;4182877;28;20639;-74
2024/02/29 05:10:42;;;;;;;22.60;10.10;;;0.00;99.90;;;;;;4186922;28;20496;-73
2024/02/29 05:12:44;;;;;;;23.00;10.33;;;0.10;99.90;;;;;;4184889;28;20465;-73
2024/02/29 05:14:46;;;;;;;25.30;11.37;;;0.10;99.90;;;;;;4185475;28;20481;-73
2024/02/29 05:16:48;;;;;;;27.97;10.77;;;0.20;99.90;;;;;;4188346;28;20491;-75
2024/02/29 05:18:51;;;;;;;27.77;11.43;;;0.20;99.90;;;;;;4188046;28;20449;-74
2024/02/29 05:20:54;;;;;;;28.30;12.00;;;0.20;99.90;;;;;;4185250;28;20478;-71
2024/02/29 05:22:56;;;;;;;26.77;11.43;;;0.60;99.90;;;;;;4192287;28;20459;-73
2024/02/29 05:24:58;;;;;;;27.07;11.53;;;0.30;99.90;;;;;;4191952;28;20595;-73
2024/02/29 05:27:01;;;;;;;26.27;11.80;;;0.20;99.90;;;;;;4190154;28;20476;-72
2024/02/29 05:29:05;;;;;;;29.43;12.40;;;0.20;99.90;;;;;;4190757;28;20462;-73
2024/02/29 05:31:07;;;;;;;27.07;11.43;;;0.30;99.90;;;;;;4188667;28;21014;-74
2024/02/29 05:33:09;;;;;;;26.63;11.07;;;0.30;99.90;;;;;;4186987;28;20436;-72
2024/02/29 05:35:12;;;;;;;29.37;12.10;;;0.30;99.90;;;;;;4188973;28;20879;-75
2024/02/29 05:37:15;;;;;;;28.93;11.60;;;0.50;99.90;;;;;;4185375;28;20522;-71
2024/02/29 05:39:17;;;;;;;30.97;11.93;;;0.30;99.90;;;;;;4190456;28;20447;-74
2024/02/29 05:41:30;;;;;;;25.67;11.77;;;0.40;99.90;;;;;;4184519;28;20474;-74
2024/02/29 05:43:32;;;;;;;29.37;12.00;;;0.40;99.90;;;;;;4185231;28;20455;-74
2024/02/29 05:45:34;;;;;;;31.90;12.70;;;0.40;99.90;;;;;;4184392;28;20460;-74
2024/02/29 05:47:36;;;;;;;25.70;11.57;;;0.40;99.90;;;;;;4192153;28;20450;-71
2024/02/29 05:49:38;;;;;;;25.23;10.70;;;0.60;99.90;;;;;;4185776;28;20828;-72
2024/02/29 05:51:42;;;;;;;28.00;10.87;;;0.30;99.90;;;;;;4187466;28;20454;-72
2024/02/29 05:53:47;;;;;;;28.13;11.67;;;0.30;99.90;;;;;;4185247;28;20513;-74
2024/02/29 05:55:50;;;;;;;24.67;10.97;;;0.30;99.90;;;;;;4183907;28;20503;-72
2024/02/29 05:57:52;;;;;;;27.93;10.57;;;0.30;99.90;;;;;;4180753;28;20490;-72
2024/02/29 05:59:54;;;;;;;25.33;11.33;;;0.30;99.90;;;;;;4184749;28;20491;-72
2024/02/29 06:01:56;;;;;;;27.53;11.30;;;0.30;99.90;;;;;;4192981;28;20447;-72
2024/02/29 06:03:58;;;;;;;25.57;11.33;;;0.30;99.90;;;;;;4186731;28;21009;-72
2024/02/29 06:06:00;;;;;;;27.30;11.17;;;0.30;99.90;;;;;;4188550;28;20470;-73
2024/02/29 06:08:03;;;;;;;32.40;13.93;;;0.30;99.90;;;;;;4186546;28;20444;-73
2024/02/29 06:10:09;;;;;;;42.03;16.90;;;0.30;99.90;;;;;;4188736;28;20730;-73
2024/02/29 06:12:11;;;;;;;42.50;14.67;;;0.40;99.90;;;;;;4185757;28;20472;-74
2024/02/29 06:14:13;;;;;;;32.77;13.03;;;0.40;99.90;;;;;;4184515;28;20449;-72
2024/02/29 06:16:15;;;;;;;28.27;12.00;;;0.40;99.90;;;;;;4182349;28;20484;-72
2024/02/29 06:18:17;;;;;;;30.63;12.50;;;0.50;99.90;;;;;;4184225;28;20495;-73
2024/02/29 06:20:19;;;;;;;29.60;12.17;;;0.40;99.90;;;;;;4184920;28;20523;-75
2024/02/29 06:22:22;;;;;;;29.90;12.43;;;0.40;99.90;;;;;;4187302;28;20482;-74
2024/02/29 06:24:24;;;;;;;33.40;13.13;;;0.40;99.90;;;;;;4182735;28;20938;-73
2024/02/29 06:26:27;;;;;;;30.80;11.97;;;0.40;99.90;;;;;;4189090;28;20543;-73
2024/02/29 06:28:29;;;;;;;33.00;13.27;;;0.40;99.90;;;;;;4187537;28;20449;-72
2024/02/29 06:30:38;;;;;;;31.37;12.30;;;0.40;99.90;;;;;;4185304;28;21051;-74
2024/02/29 06:32:40;;;;;;;29.27;12.67;;;0.40;99.90;;;;;;4189434;28;20458;-72
2024/02/29 06:34:42;;;;;;;32.87;13.43;;;0.50;99.90;;;;;;4185220;28;21038;-71
2024/02/29 06:36:44;;;;;;;32.70;13.20;;;0.50;99.90;;;;;;4190823;28;20852;-74
2024/02/29 06:38:45;;;;;;;33.40;14.00;;;0.50;99.90;;;;;;4187738;28;20459;-74
2024/02/29 06:40:48;;;;;;;32.60;13.67;;;0.50;99.90;;;;;;4186415;28;20474;-75
2024/02/29 06:42:51;;;;;;;37.90;15.40;;;0.60;99.90;;;;;;4188064;28;20451;-76
2024/02/29 06:44:52;;;;;;;35.07;14.63;;;0.60;99.90;;;;;;4174689;28;20495;-74
2024/02/29 06:46:54;;;;;;;37.73;13.03;;;0.70;99.90;;;;;;4178169;28;20444;-73
2024/02/29 06:48:56;;;;;;;36.27;13.23;;;0.70;99.90;;;;;;4192347;28;20527;-73
2024/02/29 06:50:58;;;;;;;35.80;14.57;;;0.80;99.90;;;;;;4190475;28;20529;-73
2024/02/29 06:53:00;;;;;;;32.90;14.20;;;0.80;99.90;;;;;;4194031;28;20460;-74
2024/02/29 06:55:04;;;;;;;31.40;13.33;;;0.90;99.90;;;;;;4190852;28;21255;-73
2024/02/29 06:57:06;;;;;;;35.90;15.00;;;0.90;99.90;;;;;;4190837;28;20484;-74
2024/02/29 06:59:09;;;;;;;39.60;14.87;;;1.00;99.90;;;;;;4184281;28;20456;-73
2024/02/29 07:01:13;;;;;;;40.57;16.37;;;1.00;99.90;;;;;;4185669;28;21199;-74
2024/02/29 07:03:15;;;;;;;42.50;18.37;;;1.00;99.90;;;;;;4192436;28;20444;-74
2024/02/29 07:05:17;;;;;;;43.87;17.60;;;1.10;99.90;;;;;;4191828;28;20898;-74
2024/02/29 07:07:19;;;;;;;33.67;14.33;;;1.10;99.90;;;;;;4191620;28;20484;-73
2024/02/29 07:09:21;;;;;;;38.10;14.83;;;1.80;99.90;;;;;;4184092;28;20482;-74
2024/02/29 07:11:23;;;;;;;35.00;14.37;;;1.20;99.90;;;;;;4186949;28;20941;-73
2024/02/29 07:13:25;;;;;;;35.17;14.63;;;1.20;99.90;;;;;;4182916;28;20449;-73
2024/02/29 07:15:28;;;;;;;38.53;15.43;;;1.30;99.90;;;;;;4192754;28;20476;-74
2024/02/29 07:17:30;;;;;;;34.93;14.73;;;1.30;99.90;;;;;;4185200;28;20480;-75
2024/02/29 07:19:33;;;;;;;37.03;15.57;;;1.40;99.90;;;;;;4185784;28;21204;-73
2024/02/29 07:21:36;;;;;;;40.77;15.67;;;1.40;99.90;;;;;;4191142;28;20459;-73
2024/02/29 07:23:38;;;;;;;34.83;14.43;;;1.40;99.90;;;;;;4182065;28;20457;-73
2024/02/29 07:25:40;;;;;;;34.13;14.57;;;1.50;99.90;;;;;;4186668;28;20482;-74
2024/02/29 07:27:45;;;;;;;37.63;16.07;;;1.60;99.90;;;;;;4179017;28;20477;-72
2024/02/29 07:29:49;;;;;;;33.87;14.67;;;1.60;99.90;;;;;;4184902;28;20468;-73
2024/02/29 07:31:53;;;;;;;37.27;15.37;;;1.70;99.90;;;;;;4193196;28;20462;-74
2024/02/29 07:33:55;;;;;;;37.63;16.23;;;1.80;99.90;;;;;;4186326;28;20453;-75
2024/02/29 07:35:57;;;;;;;35.53;15.03;;;1.80;99.90;;;;;;4184203;28;20468;-73
2024/02/29 07:37:59;;;;;;;36.67;15.57;;;1.90;99.90;;;;;;4188915;28;20974;-73
2024/02/29 07:40:01;;;;;;;33.97;14.63;;;2.00;99.90;;;;;;4191753;28;20484;-73
2024/02/29 07:42:03;;;;;;;34.53;15.00;;;2.10;99.90;;;;;;4186178;28;20445;-73
2024/02/29 07:44:08;;;;;;;37.37;15.40;;;2.10;99.90;;;;;;4190832;28;20451;-73
2024/02/29 07:46:10;;;;;;;37.17;15.20;;;2.10;99.90;;;;;;4185509;28;20507;-73
2024/02/29 07:48:14;;;;;;;34.83;14.67;;;2.20;99.90;;;;;;4185014;28;20481;-77
2024/02/29 07:50:17;;;;;;;32.07;15.20;;;2.20;99.90;;;;;;4180360;28;20457;-73
2024/02/29 07:52:19;;;;;;;33.87;14.73;;;2.30;99.90;;;;;;4181938;28;20579;-73
2024/02/29 07:54:21;;;;;;;37.93;15.50;;;2.40;99.90;;;;;;4185674;28;20502;-74
2024/02/29 07:56:23;;;;;;;33.77;14.87;;;2.40;99.90;;;;;;4187833;28;20510;-74
2024/02/29 07:58:26;;;;;;;35.43;15.00;;;2.50;99.90;;;;;;4186065;28;20980;-73
2024/02/29 08:00:28;;;;;;;33.43;14.77;;;2.50;99.90;;;;;;4188903;28;21002;-74
2024/02/29 08:02:29;;;;;;;31.53;14.27;;;2.60;99.90;;;;;;4180712;28;20453;-73
2024/02/29 08:04:33;;;;;;;30.60;14.00;;;2.70;99.90;;;;;;4184020;28;20493;-72
2024/02/29 08:06:35;;;;;;;32.90;14.90;;;2.70;99.90;;;;;;4191702;28;20888;-72
2024/02/29 08:08:39;;;;;;;30.13;13.63;;;2.80;99.90;;;;;;4188900;28;20460;-74
2024/02/29 08:10:40;;;;;;;31.63;13.70;;;2.80;99.90;;;;;;4187461;28;20440;-74
2024/02/29 08:12:43;;;;;;;33.00;14.57;;;3.10;99.90;;;;;;4185803;28;20874;-73
2024/02/29 08:14:45;;;;;;;31.73;15.20;;;3.00;99.90;;;;;;4192226;28;20560;-74
2024/02/29 08:16:47;;;;;;;30.23;14.17;;;3.00;99.90;;;;;;4183913;28;20456;-73
2024/02/29 08:18:51;;;;;;;29.07;14.07;;;3.10;99.90;;;;;;4183376;28;20518;-73
2024/02/29 08:20:54;;;;;;;30.30;14.17;;;3.20;99.90;;;;;;4181011;28;20453;-73
2024/02/29 08:22:56;;;;;;;31.10;15.03;;;3.30;99.90;;;;;;4198041;28;20451;-73
2024/02/29 08:24:58;;;;;;;30.47;13.83;;;3.40;99.90;;;;;;4187485;28;20464;-74
2024/02/29 08:27:00;;;;;;;29.97;14.17;;;3.50;99.90;;;;;;4185724;28;20456;-75
2024/02/29 08:29:02;;;;;;;28.10;14.13;;;3.50;99.90;;;;;;4183842;28;20469;-75
2024/02/29 08:31:05;;;;;;;26.63;13.90;;;3.60;99.90;;;;;;4186457;28;20457;-75
2024/02/29 08:33:07;;;;;;;25.37;13.37;;;3.70;99.90;;;;;;4182800;28;20479;-74
2024/02/29 08:35:11;;;;;;;25.47;12.77;;;3.80;99.90;;;;;;4183456;28;20530;-77
2024/02/29 08:37:13;;;;;;;26.83;12.90;;;3.90;99.90;;;;;;4181882;28;20484;-75
2024/02/29 08:39:15;;;;;;;29.00;12.57;;;4.00;99.90;;;;;;4185928;28;20460;-74
2024/02/29 08:41:17;;;;;;;25.43;13.20;;;4.00;99.90;;;;;;4187799;28;20472;-75
2024/02/29 08:43:20;;;;;;;25.23;13.10;;;4.10;99.90;;;;;;4188017;28;20458;-73
2024/02/29 08:45:22;;;;;;;28.07;13.17;;;4.20;99.90;;;;;;4181341;28;20570;-73
2024/02/29 08:47:24;;;;;;;25.70;12.83;;;4.30;99.90;;;;;;4187576;28;20502;-74
2024/02/29 08:49:26;;;;;;;26.80;13.27;;;4.40;99.90;;;;;;4179700;28;20454;-74
2024/02/29 08:51:28;;;;;;;29.57;13.77;;;4.50;99.90;;;;;;4184159;28;20483;-74
2024/02/29 08:53:31;;;;;;;25.27;13.47;;;4.50;99.90;;;;;;4184638;28;20449;-74
2024/02/29 08:55:37;;;;;;;24.87;12.80;;;4.70;99.90;;;;;;4180971;28;20469;-73
2024/02/29 08:57:39;;;;;;;26.53;13.03;;;4.80;99.90;;;;;;4188202;28;20477;-73
2024/02/29 08:59:40;;;;;;;25.43;13.13;;;4.90;99.90;;;;;;4186032;28;20448;-77
2024/02/29 09:01:43;;;;;;;22.10;12.93;;;5.00;99.90;;;;;;4185776;28;20526;-77
2024/02/29 09:03:43;;;;;;;24.67;12.80;;;5.00;99.90;;;;;;4186207;28;22088;-84
2024/02/29 09:05:46;;;;;;;24.43;13.37;;;5.10;99.90;;;;;;4186302;28;20521;-76
2024/02/29 09:07:48;;;;;;;25.23;12.80;;;5.20;99.90;;;;;;4183348;28;20995;-76
2024/02/29 09:09:51;;;;;;;24.17;12.73;;;5.20;99.90;;;;;;4182241;28;20456;-76
2024/02/29 09:11:53;;;;;;;24.27;13.80;;;5.30;99.90;;;;;;4182669;28;20549;-77
2024/02/29 09:13:56;;;;;;;22.80;12.77;;;5.40;99.90;;;;;;4184422;28;20548;-77
2024/02/29 09:15:58;;;;;;;25.43;13.90;;;5.50;99.90;;;;;;4186395;28;20557;-76
2024/02/29 09:18:01;;;;;;;25.27;12.83;;;5.50;99.90;;;;;;4188399;28;20525;-77
2024/02/29 09:20:04;;;;;;;22.23;12.43;;;5.50;99.90;;;;;;4185649;28;20456;-74
2024/02/29 09:22:06;;;;;;;23.23;12.47;;;5.60;99.90;;;;;;4189388;28;20915;-76
2024/02/29 09:24:08;;;;;;;23.67;12.80;;;5.60;99.90;;;;;;4189013;28;20451;-74
2024/02/29 09:26:16;;;;;;;25.07;13.10;;;5.70;99.90;;;;;;4184579;28;20463;-73
2024/02/29 09:28:17;;;;;;;24.57;12.63;;;5.80;99.90;;;;;;4189379;28;20476;-74
2024/02/29 09:30:19;;;;;;;22.80;12.53;;;5.80;99.90;;;;;;4184763;28;20521;-75
2024/02/29 09:32:21;;;;;;;22.30;12.53;;;5.80;99.90;;;;;;4183036;28;20455;-76
2024/02/29 09:34:23;;;;;;;27.23;13.90;;;5.90;99.90;;;;;;4183000;28;21178;-76
2024/02/29 09:36:25;;;;;;;26.70;13.03;;;5.90;99.90;;;;;;4186643;28;20550;-74
2024/02/29 09:38:27;;;;;;;24.50;13.80;;;6.00;99.90;;;;;;4185287;28;20507;-76
2024/02/29 09:40:29;;;;;;;24.30;13.00;;;6.00;99.90;;;;;;4183070;28;20457;-76
2024/02/29 09:42:33;;;;;;;24.07;12.70;;;6.20;99.90;;;;;;4184050;28;20514;-76
2024/02/29 09:44:36;;;;;;;24.80;13.60;;;6.20;99.90;;;;;;4183370;28;20470;-75
2024/02/29 09:46:46;;;;;;;25.23;12.90;;;6.20;99.90;;;;;;4186862;28;21014;-75
2024/02/29 09:48:52;;;;;;;22.97;13.03;;;6.40;99.90;;;;;;4184300;28;20448;-76
2024/02/29 09:50:56;;;;;;;27.83;14.30;;;6.40;99.90;;;;;;4183540;28;21380;-74
2024/02/29 09:52:59;;;;;;;26.23;14.20;;;6.50;99.90;;;;;;4185708;28;20913;-74
2024/02/29 09:55:04;;;;;;;27.17;13.80;;;6.60;99.90;;;;;;4188065;28;20915;-75
2024/02/29 09:57:07;;;;;;;25.40;13.87;;;6.60;99.90;;;;;;4187247;28;20590;-74
2024/02/29 09:59:14;;;;;;;28.77;14.70;;;6.70;99.90;;;;;;4186278;28;20257;-74
2024/02/29 10:01:16;;;;;;;27.37;14.97;;;6.80;99.90;;;;;;4183982;28;20210;-74
2024/02/29 10:03:18;;;;;;;28.30;14.70;;;6.90;99.90;;;;;;4184674;28;20218;-74
2024/02/29 10:05:22;;;;;;;25.27;13.80;;;6.90;99.90;;;;;;4188863;28;20497;-74
2024/02/29 10:07:25;;;;;;;26.50;14.13;;;7.00;99.90;;;;;;4188238;28;20567;-75
2024/02/29 10:09:30;;;;;;;25.37;14.43;;;7.10;99.90;;;;;;4187550;28;20198;-74
2024/02/29 10:11:32;;;;;;;26.97;13.77;;;7.20;99.90;;;;;;4187919;28;20799;-73
2024/02/29 10:13:37;;;;;;;26.07;13.50;;;7.20;99.90;;;;;;4185213;28;20207;-74
2024/02/29 10:15:42;;;;;;;26.67;13.63;;;7.30;99.90;;;;;;4184781;28;20477;-72
2024/02/29 10:17:44;;;;;;;27.93;13.90;;;7.40;99.90;;;;;;4186653;28;20206;-73
2024/02/29 10:19:52;;;;;;;26.57;13.70;;;7.40;99.90;;;;;;4188913;28;20238;-72
2024/02/29 10:21:54;;;;;;;23.97;12.97;;;7.50;99.90;;;;;;4183811;28;20662;-75
2024/02/29 10:23:57;;;;;;;28.20;14.30;;;7.60;99.90;;;;;;4188042;28;20206;-73
2024/02/29 10:25:59;;;;;;;24.50;13.17;;;7.60;99.90;;;;;;4187555;28;20218;-71
2024/02/29 10:28:03;;;;;;;27.80;13.50;;;7.70;99.90;;;;;;4190793;28;20206;-72
2024/02/29 10:30:09;;;;;;;23.53;13.43;;;7.80;99.90;;;;;;4189978;28;20207;-72